sensor_id;sensor_type;location;lat;lon;timestamp;P1;durP1;ratioP1;P2;durP2;ratioP2
69625;SDS011;56847;51.984;5.088;2024-02-04T00:02:23;52.03;;;14.35;;
69625;SDS011;56847;51.984;5.088;2024-02-04T00:04:52;43.00;;;12.47;;
69625;SDS011;56847;51.984;5.088;2024-02-04T00:07:19;38.65;;;12.90;;
69625;SDS011;56847;51.984;5.088;2024-02-04T00:09:46;42.63;;;12.13;;
69625;SDS011;56847;51.984;5.088;2024-02-04T00:12:13;37.35;;;12.10;;
69625;SDS011;56847;51.984;5.088;2024-02-04T00:14:40;48.33;;;15.85;;
69625;SDS011;56847;51.984;5.088;2024-02-04T00:17:07;40.90;;;13.27;;
69625;SDS011;56847;51.984;5.088;2024-02-04T00:19:34;41.95;;;14.90;;
69625;SDS011;56847;51.984;5.088;2024-02-04T00:22:01;39.90;;;16.40;;
69625;SDS011;56847;51.984;5.088;2024-02-04T00:24:28;43.05;;;14.43;;
69625;SDS011;56847;51.984;5.088;2024-02-04T00:26:56;68.82;;;17.73;;
69625;SDS011;56847;51.984;5.088;2024-02-04T00:29:25;45.77;;;14.97;;
69625;SDS011;56847;51.984;5.088;2024-02-04T00:31:52;50.10;;;15.55;;
69625;SDS011;56847;51.984;5.088;2024-02-04T00:34:19;40.05;;;15.43;;
69625;SDS011;56847;51.984;5.088;2024-02-04T00:36:46;47.13;;;15.13;;
69625;SDS011;56847;51.984;5.088;2024-02-04T00:39:14;51.38;;;17.17;;
69625;SDS011;56847;51.984;5.088;2024-02-04T00:41:41;56.07;;;16.40;;
69625;SDS011;56847;51.984;5.088;2024-02-04T00:44:08;52.03;;;15.70;;
69625;SDS011;56847;51.984;5.088;2024-02-04T00:46:35;54.97;;;15.48;;
69625;SDS011;56847;51.984;5.088;2024-02-04T00:49:02;49.55;;;14.40;;
69625;SDS011;56847;51.984;5.088;2024-02-04T00:51:29;41.45;;;15.60;;
69625;SDS011;56847;51.984;5.088;2024-02-04T00:53:56;36.77;;;14.23;;
69625;SDS011;56847;51.984;5.088;2024-02-04T00:56:30;47.65;;;14.80;;
69625;SDS011;56847;51.984;5.088;2024-02-04T00:58:57;38.90;;;13.43;;
69625;SDS011;56847;51.984;5.088;2024-02-04T01:01:25;42.38;;;13.65;;
69625;SDS011;56847;51.984;5.088;2024-02-04T01:03:52;51.50;;;15.68;;
69625;SDS011;56847;51.984;5.088;2024-02-04T01:06:20;51.00;;;14.80;;
69625;SDS011;56847;51.984;5.088;2024-02-04T01:08:47;41.13;;;14.40;;
69625;SDS011;56847;51.984;5.088;2024-02-04T01:11:14;48.78;;;15.95;;
69625;SDS011;56847;51.984;5.088;2024-02-04T01:13:41;56.08;;;14.85;;
69625;SDS011;56847;51.984;5.088;2024-02-04T01:16:08;54.10;;;15.15;;
69625;SDS011;56847;51.984;5.088;2024-02-04T01:18:35;43.60;;;14.27;;
69625;SDS011;56847;51.984;5.088;2024-02-04T01:21:02;43.42;;;13.25;;
69625;SDS011;56847;51.984;5.088;2024-02-04T01:23:29;59.55;;;16.58;;
69625;SDS011;56847;51.984;5.088;2024-02-04T01:25:56;46.83;;;15.40;;
69625;SDS011;56847;51.984;5.088;2024-02-04T01:28:23;46.03;;;15.75;;
69625;SDS011;56847;51.984;5.088;2024-02-04T01:30:50;50.00;;;15.57;;
69625;SDS011;56847;51.984;5.088;2024-02-04T01:33:17;41.28;;;14.48;;
69625;SDS011;56847;51.984;5.088;2024-02-04T01:35:44;46.55;;;15.98;;
69625;SDS011;56847;51.984;5.088;2024-02-04T01:38:12;54.25;;;16.17;;
69625;SDS011;56847;51.984;5.088;2024-02-04T01:40:39;45.78;;;16.65;;
69625;SDS011;56847;51.984;5.088;2024-02-04T01:43:06;41.97;;;15.97;;
69625;SDS011;56847;51.984;5.088;2024-02-04T01:45:33;49.15;;;17.85;;
69625;SDS011;56847;51.984;5.088;2024-02-04T01:48:00;49.95;;;19.13;;
69625;SDS011;56847;51.984;5.088;2024-02-04T01:50:30;53.47;;;19.83;;
69625;SDS011;56847;51.984;5.088;2024-02-04T01:52:57;56.38;;;20.67;;
69625;SDS011;56847;51.984;5.088;2024-02-04T01:55:25;45.43;;;19.77;;
69625;SDS011;56847;51.984;5.088;2024-02-04T01:57:52;61.08;;;22.10;;
69625;SDS011;56847;51.984;5.088;2024-02-04T02:00:19;53.33;;;19.73;;
69625;SDS011;56847;51.984;5.088;2024-02-04T02:02:47;50.10;;;20.17;;
69625;SDS011;56847;51.984;5.088;2024-02-04T02:05:16;54.28;;;21.58;;
69625;SDS011;56847;51.984;5.088;2024-02-04T02:07:43;48.63;;;17.33;;
69625;SDS011;56847;51.984;5.088;2024-02-04T02:10:12;53.92;;;20.30;;
69625;SDS011;56847;51.984;5.088;2024-02-04T02:12:40;64.38;;;22.95;;
69625;SDS011;56847;51.984;5.088;2024-02-04T02:15:21;47.85;;;19.52;;
69625;SDS011;56847;51.984;5.088;2024-02-04T02:23:25;46.15;;;20.67;;
69625;SDS011;56847;51.984;5.088;2024-02-04T02:26:04;50.33;;;21.00;;
69625;SDS011;56847;51.984;5.088;2024-02-04T02:28:33;50.65;;;20.90;;
69625;SDS011;56847;51.984;5.088;2024-02-04T02:31:00;53.15;;;20.20;;
69625;SDS011;56847;51.984;5.088;2024-02-04T02:33:32;50.13;;;20.17;;
69625;SDS011;56847;51.984;5.088;2024-02-04T02:36:00;47.22;;;18.90;;
69625;SDS011;56847;51.984;5.088;2024-02-04T02:38:37;44.45;;;19.85;;
69625;SDS011;56847;51.984;5.088;2024-02-04T02:41:16;54.60;;;20.58;;
69625;SDS011;56847;51.984;5.088;2024-02-04T02:43:44;44.22;;;18.90;;
69625;SDS011;56847;51.984;5.088;2024-02-04T02:46:12;52.37;;;17.60;;
69625;SDS011;56847;51.984;5.088;2024-02-04T02:48:40;51.97;;;17.15;;
69625;SDS011;56847;51.984;5.088;2024-02-04T02:51:07;46.00;;;17.63;;
69625;SDS011;56847;51.984;5.088;2024-02-04T02:53:34;38.20;;;15.10;;
69625;SDS011;56847;51.984;5.088;2024-02-04T02:56:01;34.15;;;15.57;;
69625;SDS011;56847;51.984;5.088;2024-02-04T02:58:28;42.57;;;15.10;;
69625;SDS011;56847;51.984;5.088;2024-02-04T03:00:55;38.25;;;13.70;;
69625;SDS011;56847;51.984;5.088;2024-02-04T03:03:23;36.78;;;12.50;;
69625;SDS011;56847;51.984;5.088;2024-02-04T03:05:50;24.45;;;10.82;;
69625;SDS011;56847;51.984;5.088;2024-02-04T03:08:17;27.50;;;8.68;;
69625;SDS011;56847;51.984;5.088;2024-02-04T03:10:44;24.23;;;9.10;;
69625;SDS011;56847;51.984;5.088;2024-02-04T03:13:11;27.65;;;10.27;;
69625;SDS011;56847;51.984;5.088;2024-02-04T03:15:38;21.58;;;9.73;;
69625;SDS011;56847;51.984;5.088;2024-02-04T03:18:07;27.17;;;11.18;;
69625;SDS011;56847;51.984;5.088;2024-02-04T03:20:34;30.58;;;11.30;;
69625;SDS011;56847;51.984;5.088;2024-02-04T03:23:01;33.70;;;11.80;;
69625;SDS011;56847;51.984;5.088;2024-02-04T03:25:29;37.35;;;12.40;;
69625;SDS011;56847;51.984;5.088;2024-02-04T03:27:56;41.63;;;13.05;;
69625;SDS011;56847;51.984;5.088;2024-02-04T03:30:23;39.50;;;12.05;;
69625;SDS011;56847;51.984;5.088;2024-02-04T03:32:50;36.17;;;10.75;;
69625;SDS011;56847;51.984;5.088;2024-02-04T03:35:17;36.53;;;10.93;;
69625;SDS011;56847;51.984;5.088;2024-02-04T03:37:44;31.52;;;10.48;;
69625;SDS011;56847;51.984;5.088;2024-02-04T03:40:11;33.28;;;10.73;;
69625;SDS011;56847;51.984;5.088;2024-02-04T03:42:39;37.63;;;11.63;;
69625;SDS011;56847;51.984;5.088;2024-02-04T03:45:07;34.78;;;11.20;;
69625;SDS011;56847;51.984;5.088;2024-02-04T03:47:37;31.50;;;10.73;;
69625;SDS011;56847;51.984;5.088;2024-02-04T03:50:04;36.78;;;11.02;;
69625;SDS011;56847;51.984;5.088;2024-02-04T03:52:32;33.75;;;12.07;;
69625;SDS011;56847;51.984;5.088;2024-02-04T03:54:58;37.10;;;11.55;;
69625;SDS011;56847;51.984;5.088;2024-02-04T03:57:29;34.17;;;12.77;;
69625;SDS011;56847;51.984;5.088;2024-02-04T03:59:56;37.43;;;11.30;;
69625;SDS011;56847;51.984;5.088;2024-02-04T04:02:22;39.20;;;12.60;;
69625;SDS011;56847;51.984;5.088;2024-02-04T04:04:49;42.67;;;13.80;;
69625;SDS011;56847;51.984;5.088;2024-02-04T04:07:16;31.65;;;12.55;;
69625;SDS011;56847;51.984;5.088;2024-02-04T04:09:44;46.97;;;16.38;;
69625;SDS011;56847;51.984;5.088;2024-02-04T04:12:11;38.73;;;14.47;;
69625;SDS011;56847;51.984;5.088;2024-02-04T04:14:38;37.50;;;16.48;;
69625;SDS011;56847;51.984;5.088;2024-02-04T04:17:04;47.65;;;16.73;;
69625;SDS011;56847;51.984;5.088;2024-02-04T04:19:31;57.83;;;19.55;;
69625;SDS011;56847;51.984;5.088;2024-02-04T04:22:02;42.80;;;17.42;;
69625;SDS011;56847;51.984;5.088;2024-02-04T04:24:33;48.63;;;18.60;;
69625;SDS011;56847;51.984;5.088;2024-02-04T04:27:00;48.67;;;19.38;;
69625;SDS011;56847;51.984;5.088;2024-02-04T04:29:27;50.70;;;20.50;;
69625;SDS011;56847;51.984;5.088;2024-02-04T04:31:54;57.55;;;22.15;;
69625;SDS011;56847;51.984;5.088;2024-02-04T04:34:21;46.60;;;22.65;;
69625;SDS011;56847;51.984;5.088;2024-02-04T04:36:48;47.37;;;21.57;;
69625;SDS011;56847;51.984;5.088;2024-02-04T04:39:15;40.50;;;19.23;;
69625;SDS011;56847;51.984;5.088;2024-02-04T04:41:43;44.67;;;19.83;;
69625;SDS011;56847;51.984;5.088;2024-02-04T04:44:10;44.55;;;20.55;;
69625;SDS011;56847;51.984;5.088;2024-02-04T04:46:40;42.05;;;21.55;;
69625;SDS011;56847;51.984;5.088;2024-02-04T04:49:07;55.63;;;21.83;;
69625;SDS011;56847;51.984;5.088;2024-02-04T04:51:35;58.20;;;22.90;;
69625;SDS011;56847;51.984;5.088;2024-02-04T04:54:02;58.25;;;21.58;;
69625;SDS011;56847;51.984;5.088;2024-02-04T04:56:29;56.90;;;24.45;;
69625;SDS011;56847;51.984;5.088;2024-02-04T04:58:56;59.92;;;24.15;;
69625;SDS011;56847;51.984;5.088;2024-02-04T05:01:23;60.47;;;21.83;;
69625;SDS011;56847;51.984;5.088;2024-02-04T05:03:50;54.15;;;21.83;;
69625;SDS011;56847;51.984;5.088;2024-02-04T05:06:18;49.42;;;20.75;;
69625;SDS011;56847;51.984;5.088;2024-02-04T05:08:44;53.13;;;20.27;;
69625;SDS011;56847;51.984;5.088;2024-02-04T05:11:11;53.80;;;21.40;;
69625;SDS011;56847;51.984;5.088;2024-02-04T05:13:39;51.03;;;21.40;;
69625;SDS011;56847;51.984;5.088;2024-02-04T05:16:06;62.83;;;21.35;;
69625;SDS011;56847;51.984;5.088;2024-02-04T05:18:33;60.25;;;22.02;;
69625;SDS011;56847;51.984;5.088;2024-02-04T05:21:01;52.75;;;23.52;;
69625;SDS011;56847;51.984;5.088;2024-02-04T05:23:29;56.35;;;24.08;;
69625;SDS011;56847;51.984;5.088;2024-02-04T05:25:56;52.03;;;23.17;;
69625;SDS011;56847;51.984;5.088;2024-02-04T05:28:23;68.22;;;24.92;;
69625;SDS011;56847;51.984;5.088;2024-02-04T05:30:50;71.10;;;25.60;;
69625;SDS011;56847;51.984;5.088;2024-02-04T05:33:17;63.75;;;24.50;;
69625;SDS011;56847;51.984;5.088;2024-02-04T05:35:44;58.65;;;24.63;;
69625;SDS011;56847;51.984;5.088;2024-02-04T05:38:11;56.90;;;22.80;;
69625;SDS011;56847;51.984;5.088;2024-02-04T05:40:38;49.20;;;22.27;;
69625;SDS011;56847;51.984;5.088;2024-02-04T05:43:05;63.78;;;24.08;;
69625;SDS011;56847;51.984;5.088;2024-02-04T05:45:38;46.22;;;21.50;;
69625;SDS011;56847;51.984;5.088;2024-02-04T05:48:07;45.42;;;18.65;;
69625;SDS011;56847;51.984;5.088;2024-02-04T05:50:35;39.87;;;17.93;;
69625;SDS011;56847;51.984;5.088;2024-02-04T05:53:02;42.92;;;16.85;;
69625;SDS011;56847;51.984;5.088;2024-02-04T05:55:29;47.97;;;17.58;;
69625;SDS011;56847;51.984;5.088;2024-02-04T05:57:56;33.08;;;12.90;;
69625;SDS011;56847;51.984;5.088;2024-02-04T06:00:23;33.47;;;14.77;;
69625;SDS011;56847;51.984;5.088;2024-02-04T06:02:50;38.97;;;12.80;;
69625;SDS011;56847;51.984;5.088;2024-02-04T06:05:18;37.72;;;14.32;;
69625;SDS011;56847;51.984;5.088;2024-02-04T06:07:45;34.33;;;13.57;;
69625;SDS011;56847;51.984;5.088;2024-02-04T06:10:11;34.45;;;14.20;;
69625;SDS011;56847;51.984;5.088;2024-02-04T06:12:38;24.85;;;12.88;;
69625;SDS011;56847;51.984;5.088;2024-02-04T06:18:02;38.47;;;14.27;;
69625;SDS011;56847;51.984;5.088;2024-02-04T06:20:29;38.83;;;13.60;;
69625;SDS011;56847;51.984;5.088;2024-02-04T06:22:56;32.08;;;13.32;;
69625;SDS011;56847;51.984;5.088;2024-02-04T06:25:24;36.75;;;15.00;;
69625;SDS011;56847;51.984;5.088;2024-02-04T06:27:51;36.13;;;13.13;;
69625;SDS011;56847;51.984;5.088;2024-02-04T06:30:19;36.80;;;13.55;;
69625;SDS011;56847;51.984;5.088;2024-02-04T06:32:47;43.15;;;13.18;;
69625;SDS011;56847;51.984;5.088;2024-02-04T06:35:15;40.17;;;12.27;;
69625;SDS011;56847;51.984;5.088;2024-02-04T06:37:45;36.90;;;12.68;;
69625;SDS011;56847;51.984;5.088;2024-02-04T06:40:12;51.57;;;13.37;;
69625;SDS011;56847;51.984;5.088;2024-02-04T06:42:39;25.83;;;10.60;;
69625;SDS011;56847;51.984;5.088;2024-02-04T06:45:06;29.83;;;12.68;;
69625;SDS011;56847;51.984;5.088;2024-02-04T06:47:34;36.80;;;11.93;;
69625;SDS011;56847;51.984;5.088;2024-02-04T06:50:01;34.53;;;14.05;;
69625;SDS011;56847;51.984;5.088;2024-02-04T06:52:31;34.90;;;12.60;;
69625;SDS011;56847;51.984;5.088;2024-02-04T06:54:58;37.97;;;13.15;;
69625;SDS011;56847;51.984;5.088;2024-02-04T06:57:25;42.03;;;14.43;;
69625;SDS011;56847;51.984;5.088;2024-02-04T06:59:52;36.10;;;12.80;;
69625;SDS011;56847;51.984;5.088;2024-02-04T07:02:22;36.45;;;13.80;;
69625;SDS011;56847;51.984;5.088;2024-02-04T07:04:49;33.40;;;12.40;;
69625;SDS011;56847;51.984;5.088;2024-02-04T07:07:20;29.92;;;12.20;;
69625;SDS011;56847;51.984;5.088;2024-02-04T07:09:47;33.53;;;12.00;;
69625;SDS011;56847;51.984;5.088;2024-02-04T07:12:14;30.10;;;11.00;;
69625;SDS011;56847;51.984;5.088;2024-02-04T07:14:41;36.25;;;12.02;;
69625;SDS011;56847;51.984;5.088;2024-02-04T07:17:08;35.90;;;12.40;;
69625;SDS011;56847;51.984;5.088;2024-02-04T07:19:35;36.47;;;11.35;;
69625;SDS011;56847;51.984;5.088;2024-02-04T07:22:02;38.22;;;13.13;;
69625;SDS011;56847;51.984;5.088;2024-02-04T07:24:29;38.13;;;11.50;;
69625;SDS011;56847;51.984;5.088;2024-02-04T07:26:57;32.08;;;11.60;;
69625;SDS011;56847;51.984;5.088;2024-02-04T07:29:24;38.47;;;11.10;;
69625;SDS011;56847;51.984;5.088;2024-02-04T07:31:51;36.63;;;9.68;;
69625;SDS011;56847;51.984;5.088;2024-02-04T07:35:15;26.83;;;10.52;;
69625;SDS011;56847;51.984;5.088;2024-02-04T07:37:45;28.02;;;9.75;;
69625;SDS011;56847;51.984;5.088;2024-02-04T07:40:12;33.60;;;10.75;;
69625;SDS011;56847;51.984;5.088;2024-02-04T07:42:39;26.40;;;8.60;;
69625;SDS011;56847;51.984;5.088;2024-02-04T07:45:06;28.42;;;9.20;;
69625;SDS011;56847;51.984;5.088;2024-02-04T07:47:36;28.80;;;9.82;;
69625;SDS011;56847;51.984;5.088;2024-02-04T07:50:03;24.42;;;8.32;;
69625;SDS011;56847;51.984;5.088;2024-02-04T07:52:31;22.52;;;10.25;;
69625;SDS011;56847;51.984;5.088;2024-02-04T07:54:58;29.80;;;8.47;;
69625;SDS011;56847;51.984;5.088;2024-02-04T07:57:25;20.38;;;8.85;;
69625;SDS011;56847;51.984;5.088;2024-02-04T07:59:52;24.38;;;9.85;;
69625;SDS011;56847;51.984;5.088;2024-02-04T08:02:19;28.27;;;10.13;;
69625;SDS011;56847;51.984;5.088;2024-02-04T08:04:46;25.50;;;10.30;;
69625;SDS011;56847;51.984;5.088;2024-02-04T08:07:13;31.97;;;11.30;;
69625;SDS011;56847;51.984;5.088;2024-02-04T08:09:40;36.20;;;11.80;;
69625;SDS011;56847;51.984;5.088;2024-02-04T08:12:08;34.05;;;11.40;;
69625;SDS011;56847;51.984;5.088;2024-02-04T08:14:36;33.78;;;12.23;;
69625;SDS011;56847;51.984;5.088;2024-02-04T08:17:03;34.03;;;12.77;;
69625;SDS011;56847;51.984;5.088;2024-02-04T08:19:30;39.77;;;10.20;;
69625;SDS011;56847;51.984;5.088;2024-02-04T08:21:57;30.88;;;8.93;;
69625;SDS011;56847;51.984;5.088;2024-02-04T08:24:28;39.70;;;9.90;;
69625;SDS011;56847;51.984;5.088;2024-02-04T08:26:56;30.20;;;10.20;;
69625;SDS011;56847;51.984;5.088;2024-02-04T08:29:23;34.28;;;11.32;;
69625;SDS011;56847;51.984;5.088;2024-02-04T08:31:53;39.90;;;12.20;;
69625;SDS011;56847;51.984;5.088;2024-02-04T08:34:20;39.08;;;12.50;;
69625;SDS011;56847;51.984;5.088;2024-02-04T08:36:50;28.70;;;9.23;;
69625;SDS011;56847;51.984;5.088;2024-02-04T08:39:18;25.75;;;8.43;;
69625;SDS011;56847;51.984;5.088;2024-02-04T08:41:45;30.73;;;9.30;;
69625;SDS011;56847;51.984;5.088;2024-02-04T08:44:12;22.53;;;8.07;;
69625;SDS011;56847;51.984;5.088;2024-02-04T08:46:57;20.38;;;7.28;;
69625;SDS011;56847;51.984;5.088;2024-02-04T08:49:24;23.92;;;8.75;;
69625;SDS011;56847;51.984;5.088;2024-02-04T08:51:52;19.73;;;7.75;;
69625;SDS011;56847;51.984;5.088;2024-02-04T08:54:19;19.55;;;6.53;;
69625;SDS011;56847;51.984;5.088;2024-02-04T08:56:46;14.67;;;5.63;;
69625;SDS011;56847;51.984;5.088;2024-02-04T08:59:13;16.23;;;5.97;;
69625;SDS011;56847;51.984;5.088;2024-02-04T09:01:40;12.05;;;5.38;;
69625;SDS011;56847;51.984;5.088;2024-02-04T09:04:07;11.18;;;5.22;;
69625;SDS011;56847;51.984;5.088;2024-02-04T09:06:34;14.32;;;5.88;;
69625;SDS011;56847;51.984;5.088;2024-02-04T09:09:02;11.00;;;3.67;;
69625;SDS011;56847;51.984;5.088;2024-02-04T09:11:29;12.20;;;4.43;;
69625;SDS011;56847;51.984;5.088;2024-02-04T09:13:56;13.38;;;4.90;;
69625;SDS011;56847;51.984;5.088;2024-02-04T09:16:23;9.70;;;4.38;;
69625;SDS011;56847;51.984;5.088;2024-02-04T09:18:50;12.52;;;4.35;;
69625;SDS011;56847;51.984;5.088;2024-02-04T09:21:17;10.03;;;4.07;;
69625;SDS011;56847;51.984;5.088;2024-02-04T09:23:45;8.13;;;4.03;;
69625;SDS011;56847;51.984;5.088;2024-02-04T09:26:12;12.80;;;4.35;;
69625;SDS011;56847;51.984;5.088;2024-02-04T09:28:44;17.48;;;5.20;;
69625;SDS011;56847;51.984;5.088;2024-02-04T09:31:12;13.52;;;5.63;;
69625;SDS011;56847;51.984;5.088;2024-02-04T09:33:39;16.03;;;5.13;;
69625;SDS011;56847;51.984;5.088;2024-02-04T09:36:07;11.85;;;4.28;;
69625;SDS011;56847;51.984;5.088;2024-02-04T09:38:34;11.57;;;5.30;;
69625;SDS011;56847;51.984;5.088;2024-02-04T09:41:01;16.30;;;5.55;;
69625;SDS011;56847;51.984;5.088;2024-02-04T09:43:32;16.45;;;4.78;;
69625;SDS011;56847;51.984;5.088;2024-02-04T09:46:00;9.27;;;3.53;;
69625;SDS011;56847;51.984;5.088;2024-02-04T09:48:31;10.48;;;3.58;;
69625;SDS011;56847;51.984;5.088;2024-02-04T09:51:00;12.57;;;3.50;;
69625;SDS011;56847;51.984;5.088;2024-02-04T09:53:32;12.30;;;2.95;;
69625;SDS011;56847;51.984;5.088;2024-02-04T09:56:04;6.75;;;2.75;;
69625;SDS011;56847;51.984;5.088;2024-02-04T09:58:33;13.00;;;4.07;;
69625;SDS011;56847;51.984;5.088;2024-02-04T10:01:01;7.05;;;2.40;;
69625;SDS011;56847;51.984;5.088;2024-02-04T10:03:30;4.82;;;2.63;;
69625;SDS011;56847;51.984;5.088;2024-02-04T10:05:57;4.78;;;2.40;;
69625;SDS011;56847;51.984;5.088;2024-02-04T10:08:24;5.80;;;2.40;;
69625;SDS011;56847;51.984;5.088;2024-02-04T10:10:52;5.87;;;2.10;;
69625;SDS011;56847;51.984;5.088;2024-02-04T10:13:21;3.63;;;2.10;;
69625;SDS011;56847;51.984;5.088;2024-02-04T10:15:51;5.60;;;2.30;;
69625;SDS011;56847;51.984;5.088;2024-02-04T10:18:18;4.13;;;2.10;;
69625;SDS011;56847;51.984;5.088;2024-02-04T10:20:46;12.35;;;2.28;;
69625;SDS011;56847;51.984;5.088;2024-02-04T10:23:14;7.53;;;1.90;;
69625;SDS011;56847;51.984;5.088;2024-02-04T10:25:44;4.68;;;2.20;;
69625;SDS011;56847;51.984;5.088;2024-02-04T10:28:12;3.67;;;1.88;;
69625;SDS011;56847;51.984;5.088;2024-02-04T10:30:39;2.72;;;2.50;;
69625;SDS011;56847;51.984;5.088;2024-02-04T10:33:07;5.15;;;4.35;;
69625;SDS011;56847;51.984;5.088;2024-02-04T10:35:35;7.20;;;3.63;;
69625;SDS011;56847;51.984;5.088;2024-02-04T10:38:02;9.75;;;4.57;;
69625;SDS011;56847;51.984;5.088;2024-02-04T10:40:29;7.32;;;4.97;;
69625;SDS011;56847;51.984;5.088;2024-02-04T10:43:00;9.63;;;4.85;;
69625;SDS011;56847;51.984;5.088;2024-02-04T10:45:32;13.07;;;6.20;;
69625;SDS011;56847;51.984;5.088;2024-02-04T10:48:03;16.17;;;5.43;;
69625;SDS011;56847;51.984;5.088;2024-02-04T10:50:35;10.05;;;5.20;;
69625;SDS011;56847;51.984;5.088;2024-02-04T10:53:04;13.95;;;6.28;;
69625;SDS011;56847;51.984;5.088;2024-02-04T10:55:35;22.80;;;6.70;;
69625;SDS011;56847;51.984;5.088;2024-02-04T10:58:06;19.95;;;6.70;;
69625;SDS011;56847;51.984;5.088;2024-02-04T11:00:34;20.37;;;5.87;;
69625;SDS011;56847;51.984;5.088;2024-02-04T11:03:02;17.55;;;6.50;;
69625;SDS011;56847;51.984;5.088;2024-02-04T11:05:30;23.48;;;6.97;;
69625;SDS011;56847;51.984;5.088;2024-02-04T11:08:04;31.30;;;6.50;;
69625;SDS011;56847;51.984;5.088;2024-02-04T11:10:32;19.75;;;5.90;;
69625;SDS011;56847;51.984;5.088;2024-02-04T11:13:02;23.70;;;5.87;;
69625;SDS011;56847;51.984;5.088;2024-02-04T11:15:32;26.63;;;6.55;;
69625;SDS011;56847;51.984;5.088;2024-02-04T11:18:23;21.27;;;5.97;;
69625;SDS011;56847;51.984;5.088;2024-02-04T11:26:56;24.83;;;5.70;;
69625;SDS011;56847;51.984;5.088;2024-02-04T11:29:24;24.10;;;6.05;;
69625;SDS011;56847;51.984;5.088;2024-02-04T11:31:52;25.95;;;6.07;;
69625;SDS011;56847;51.984;5.088;2024-02-04T11:34:23;25.13;;;5.65;;
69625;SDS011;56847;51.984;5.088;2024-02-04T11:36:50;22.42;;;6.20;;
69625;SDS011;56847;51.984;5.088;2024-02-04T11:39:18;23.10;;;5.47;;
69625;SDS011;56847;51.984;5.088;2024-02-04T11:41:49;23.42;;;5.55;;
69625;SDS011;56847;51.984;5.088;2024-02-04T11:44:23;32.88;;;6.25;;
69625;SDS011;56847;51.984;5.088;2024-02-04T11:46:51;26.58;;;6.28;;
69625;SDS011;56847;51.984;5.088;2024-02-04T11:49:19;29.15;;;6.45;;
69625;SDS011;56847;51.984;5.088;2024-02-04T11:51:51;30.47;;;6.77;;
69625;SDS011;56847;51.984;5.088;2024-02-04T11:54:20;23.05;;;6.20;;
69625;SDS011;56847;51.984;5.088;2024-02-04T11:56:48;21.10;;;6.72;;
69625;SDS011;56847;51.984;5.088;2024-02-04T11:59:20;22.52;;;5.45;;
69625;SDS011;56847;51.984;5.088;2024-02-04T12:02:04;43.67;;;16.05;;
69625;SDS011;56847;51.984;5.088;2024-02-04T12:04:32;30.97;;;8.27;;
69625;SDS011;56847;51.984;5.088;2024-02-04T12:07:02;29.95;;;7.10;;
69625;SDS011;56847;51.984;5.088;2024-02-04T12:09:30;30.50;;;8.70;;
69625;SDS011;56847;51.984;5.088;2024-02-04T12:11:58;27.20;;;9.85;;
69625;SDS011;56847;51.984;5.088;2024-02-04T12:14:25;26.05;;;6.80;;
69625;SDS011;56847;51.984;5.088;2024-02-04T12:16:53;20.93;;;5.60;;
69625;SDS011;56847;51.984;5.088;2024-02-04T12:19:21;21.25;;;5.47;;
69625;SDS011;56847;51.984;5.088;2024-02-04T12:21:48;22.92;;;5.38;;
69625;SDS011;56847;51.984;5.088;2024-02-04T12:24:15;16.40;;;4.20;;
69625;SDS011;56847;51.984;5.088;2024-02-04T12:26:42;13.40;;;4.00;;
69625;SDS011;56847;51.984;5.088;2024-02-04T12:29:12;11.80;;;5.03;;
69625;SDS011;56847;51.984;5.088;2024-02-04T12:31:40;13.88;;;3.03;;
69625;SDS011;56847;51.984;5.088;2024-02-04T12:34:08;13.98;;;3.42;;
69625;SDS011;56847;51.984;5.088;2024-02-04T12:36:36;12.02;;;3.58;;
69625;SDS011;56847;51.984;5.088;2024-02-04T12:39:03;12.73;;;3.60;;
69625;SDS011;56847;51.984;5.088;2024-02-04T12:41:30;9.67;;;2.80;;
69625;SDS011;56847;51.984;5.088;2024-02-04T12:43:58;9.15;;;2.85;;
69625;SDS011;56847;51.984;5.088;2024-02-04T12:46:26;11.52;;;3.65;;
69625;SDS011;56847;51.984;5.088;2024-02-04T12:48:55;13.70;;;3.33;;
69625;SDS011;56847;51.984;5.088;2024-02-04T12:51:29;12.95;;;3.60;;
69625;SDS011;56847;51.984;5.088;2024-02-04T12:54:07;11.23;;;3.20;;
69625;SDS011;56847;51.984;5.088;2024-02-04T12:59:11;17.08;;;3.95;;
69625;SDS011;56847;51.984;5.088;2024-02-04T13:01:39;11.88;;;3.92;;
69625;SDS011;56847;51.984;5.088;2024-02-04T13:04:06;7.30;;;3.78;;
69625;SDS011;56847;51.984;5.088;2024-02-04T13:06:37;8.30;;;3.63;;
69625;SDS011;56847;51.984;5.088;2024-02-04T13:09:06;7.13;;;2.97;;
69625;SDS011;56847;51.984;5.088;2024-02-04T13:11:35;19.00;;;4.15;;
69625;SDS011;56847;51.984;5.088;2024-02-04T13:14:02;9.18;;;2.97;;
69625;SDS011;56847;51.984;5.088;2024-02-04T13:16:29;11.68;;;3.65;;
69625;SDS011;56847;51.984;5.088;2024-02-04T13:18:57;14.17;;;3.33;;
69625;SDS011;56847;51.984;5.088;2024-02-04T13:21:24;9.38;;;3.13;;
69625;SDS011;56847;51.984;5.088;2024-02-04T13:23:51;15.95;;;4.22;;
69625;SDS011;56847;51.984;5.088;2024-02-04T13:26:19;12.73;;;3.80;;
69625;SDS011;56847;51.984;5.088;2024-02-04T13:28:46;13.82;;;3.65;;
69625;SDS011;56847;51.984;5.088;2024-02-04T13:31:13;12.77;;;3.37;;
69625;SDS011;56847;51.984;5.088;2024-02-04T13:33:41;14.20;;;3.47;;
69625;SDS011;56847;51.984;5.088;2024-02-04T13:36:08;17.10;;;4.20;;
69625;SDS011;56847;51.984;5.088;2024-02-04T13:38:36;14.77;;;4.35;;
69625;SDS011;56847;51.984;5.088;2024-02-04T13:41:04;19.98;;;3.92;;
69625;SDS011;56847;51.984;5.088;2024-02-04T13:43:32;11.73;;;3.20;;
69625;SDS011;56847;51.984;5.088;2024-02-04T13:46:00;18.38;;;4.10;;
69625;SDS011;56847;51.984;5.088;2024-02-04T13:48:28;16.88;;;4.28;;
69625;SDS011;56847;51.984;5.088;2024-02-04T13:50:55;20.00;;;4.07;;
69625;SDS011;56847;51.984;5.088;2024-02-04T13:53:23;15.63;;;3.97;;
69625;SDS011;56847;51.984;5.088;2024-02-04T13:55:50;18.70;;;4.10;;
69625;SDS011;56847;51.984;5.088;2024-02-04T13:58:24;18.02;;;4.40;;
69625;SDS011;56847;51.984;5.088;2024-02-04T14:00:53;11.40;;;3.67;;
69625;SDS011;56847;51.984;5.088;2024-02-04T14:03:20;16.58;;;3.65;;
69625;SDS011;56847;51.984;5.088;2024-02-04T14:05:47;16.30;;;4.22;;
69625;SDS011;56847;51.984;5.088;2024-02-04T14:08:14;18.07;;;5.87;;
69625;SDS011;56847;51.984;5.088;2024-02-04T14:10:41;16.65;;;4.50;;
69625;SDS011;56847;51.984;5.088;2024-02-04T14:13:09;14.52;;;4.90;;
69625;SDS011;56847;51.984;5.088;2024-02-04T14:15:38;13.15;;;3.65;;
69625;SDS011;56847;51.984;5.088;2024-02-04T14:18:05;16.90;;;3.70;;
69625;SDS011;56847;51.984;5.088;2024-02-04T14:20:32;20.53;;;4.53;;
69625;SDS011;56847;51.984;5.088;2024-02-04T14:22:59;16.65;;;5.22;;
69625;SDS011;56847;51.984;5.088;2024-02-04T14:25:26;16.88;;;4.75;;
69625;SDS011;56847;51.984;5.088;2024-02-04T14:27:56;17.92;;;3.92;;
69625;SDS011;56847;51.984;5.088;2024-02-04T14:30:23;28.75;;;5.95;;
69625;SDS011;56847;51.984;5.088;2024-02-04T14:32:50;18.73;;;4.63;;
69625;SDS011;56847;51.984;5.088;2024-02-04T14:35:17;17.52;;;5.10;;
69625;SDS011;56847;51.984;5.088;2024-02-04T14:37:44;25.95;;;5.60;;
69625;SDS011;56847;51.984;5.088;2024-02-04T14:40:11;32.05;;;5.72;;
69625;SDS011;56847;51.984;5.088;2024-02-04T14:42:42;26.08;;;5.75;;
69625;SDS011;56847;51.984;5.088;2024-02-04T14:45:09;16.73;;;4.77;;
69625;SDS011;56847;51.984;5.088;2024-02-04T14:47:38;30.27;;;5.07;;
69625;SDS011;56847;51.984;5.088;2024-02-04T14:50:05;22.92;;;5.40;;
69625;SDS011;56847;51.984;5.088;2024-02-04T14:52:33;25.45;;;4.60;;